Time;durP1;ratioP1;P1;durP2;ratioP2;P2;SDS_P1;SDS_P2;PMS_P1;PMS_P2;Temp;Humidity;BMP_temperature;BMP_pressure;BME280_temperature;BME280_humidity;BME280_pressure;Samples;Min_cycle;Max_cycle;Signal;HPM_P1;HPM_P2
2021/04/06 00:01:20;;;;;;;;;;;;;;;6.23;61.50;98342.03;5097243;28;19924;-71
2021/04/06 00:03:48;;;;;;;;;;;;;;;6.18;61.45;98344.56;5096208;28;19928;-72
2021/04/06 00:06:16;;;;;;;;;;;;;;;6.14;61.43;98331.94;5096106;28;19974;-71
2021/04/06 00:08:44;;;;;;;;;;;;;;;6.09;61.37;98330.25;5096989;28;19924;-72
2021/04/06 00:11:13;;;;;;;;;;;;;;;5.99;61.35;98327.78;5096282;28;19931;-71
2021/04/06 00:13:42;;;;;;;;;;;;;;;5.90;61.04;98328.66;5095444;28;19924;-71
2021/04/06 00:16:10;;;;;;;;;;;;;;;5.83;60.84;98326.13;5096847;28;19924;-71
2021/04/06 00:18:38;;;;;;;;;;;;;;;5.81;61.01;98335.41;5096741;28;19924;-72
2021/04/06 00:21:07;;;;;;;;;;;;;;;5.80;61.06;98341.34;5096799;28;19924;-71
2021/04/06 00:23:36;;;;;;;;;;;;;;;5.76;60.87;98349.78;5096716;28;19924;-71
2021/04/06 00:26:05;;;;;;;;;;;;;;;5.73;60.70;98364.97;5096662;28;19928;-71
2021/04/06 00:28:35;;;;;;;;;;;;;;;5.73;60.55;98375.94;5096564;28;20370;-72
2021/04/06 00:31:05;;;;;;;;;;;;;;;5.69;60.92;98391.13;5096937;28;19946;-71
2021/04/06 00:33:33;;;;;;;;;;;;;;;5.64;60.35;98405.50;5096875;28;19924;-71
2021/04/06 00:36:03;;;;;;;;;;;;;;;5.62;60.46;98407.16;5097120;28;19924;-71
2021/04/06 00:38:32;;;;;;;;;;;;;;;5.62;60.41;98409.69;5096679;28;19963;-71
2021/04/06 00:41:02;;;;;;;;;;;;;;;5.60;60.71;98413.91;5096417;28;19964;-69
2021/04/06 00:43:34;;;;;;;;;;;;;;;5.55;59.94;98415.63;5096731;28;19931;-70
2021/04/06 00:46:04;;;;;;;;;;;;;;;5.53;60.29;98419.84;5096402;28;20019;-71
2021/04/06 00:48:33;;;;;;;;;;;;;;;5.55;59.93;98415.63;5095073;28;19949;-71
2021/04/06 00:51:11;;;;;;;;;;;;;;;5.56;59.44;98423.22;5096193;28;20039;-72
2021/04/06 00:53:52;;;;;;;;;;;;;;;5.52;59.15;98446.00;5096166;28;19946;-70
2021/04/06 00:56:22;;;;;;;;;;;;;;;5.53;58.70;98457.78;5096096;28;19924;-71
2021/04/06 00:58:53;;;;;;;;;;;;;;;5.51;58.86;98464.53;5096821;28;19936;-71
2021/04/06 01:01:27;;;;;;;;;;;;;;;5.50;58.57;98472.97;5096084;28;19925;-71
2021/04/06 01:03:58;;;;;;;;;;;;;;;5.46;58.21;98474.66;5096082;28;19978;-71
2021/04/06 01:06:26;;;;;;;;;;;;;;;5.42;58.26;98476.34;5096039;28;19928;-71
2021/04/06 01:08:54;;;;;;;;;;;;;;;5.35;58.05;98484.78;5095806;28;19924;-71
2021/04/06 01:11:22;;;;;;;;;;;;;;;5.29;57.84;98497.44;5095798;28;19960;-70
2021/04/06 01:13:50;;;;;;;;;;;;;;;5.24;57.83;98515.97;5095797;28;19966;-71
2021/04/06 01:16:21;;;;;;;;;;;;;;;5.22;58.06;98515.97;5095705;28;19928;-71
2021/04/06 01:18:49;;;;;;;;;;;;;;;5.24;58.47;98514.28;5095697;28;19947;-71
2021/04/06 01:21:18;;;;;;;;;;;;;;;5.23;58.83;98516.81;5095471;28;19924;-71
2021/04/06 01:23:49;;;;;;;;;;;;;;;5.23;58.29;98505.00;5095205;28;19950;-70
2021/04/06 01:26:17;;;;;;;;;;;;;;;5.24;58.24;98519.34;5095553;28;19928;-71
2021/04/06 01:28:44;;;;;;;;;;;;;;;5.23;58.55;98522.69;5095251;28;20267;-71
2021/04/06 01:31:12;;;;;;;;;;;;;;;5.22;58.48;98528.63;5095323;28;20393;-71
2021/04/06 01:33:43;;;;;;;;;;;;;;;5.24;58.43;98519.34;5095313;28;19924;-71
2021/04/06 01:36:11;;;;;;;;;;;;;;;5.23;58.68;98505.00;5095398;28;19924;-71
2021/04/06 01:38:40;;;;;;;;;;;;;;;5.22;58.26;98518.50;5095327;28;19931;-71
2021/04/06 01:41:09;;;;;;;;;;;;;;;5.21;58.55;98526.06;5095870;28;19924;-72
2021/04/06 01:43:39;;;;;;;;;;;;;;;5.18;58.43;98531.94;5095208;28;19959;-71
2021/04/06 01:46:14;;;;;;;;;;;;;;;5.17;58.47;98540.41;5095218;28;20370;-71
2021/04/06 01:48:42;;;;;;;;;;;;;;;5.15;58.41;98541.22;5095136;28;19955;-71
2021/04/06 01:51:10;;;;;;;;;;;;;;;5.08;58.08;98550.50;5095146;28;19970;-70
2021/04/06 01:53:38;;;;;;;;;;;;;;;4.94;58.44;98542.03;5095344;28;20024;-71
2021/04/06 01:56:09;;;;;;;;;;;;;;;4.86;58.39;98543.69;5094928;28;19967;-71
2021/04/06 01:58:40;;;;;;;;;;;;;;;4.80;58.38;98543.63;5094892;28;19924;-71
2021/04/06 02:01:15;;;;;;;;;;;;;;;4.71;57.98;98551.19;5094038;28;19930;-71
2021/04/06 02:03:48;;;;;;;;;;;;;;;4.68;58.80;98558.75;5094907;28;19924;-71
2021/04/06 02:06:16;;;;;;;;;;;;;;;4.67;58.58;98557.09;5094810;28;20384;-71
2021/04/06 02:08:45;;;;;;;;;;;;;;;4.65;58.59;98536.03;5094786;28;19924;-71
2021/04/06 02:11:16;;;;;;;;;;;;;;;4.64;57.38;98535.19;5094655;28;20441;-71
2021/04/06 02:13:48;;;;;;;;;;;;;;;4.63;57.86;98522.53;5094997;28;20397;-70
2021/04/06 02:16:16;;;;;;;;;;;;;;;4.59;57.70;98523.34;5094707;28;20344;-71
2021/04/06 02:18:43;;;;;;;;;;;;;;;4.59;57.37;98538.50;5094552;28;19978;-71
2021/04/06 02:21:11;;;;;;;;;;;;;;;4.55;57.41;98541.88;5094481;28;19924;-71
2021/04/06 02:23:40;;;;;;;;;;;;;;;4.45;56.65;98535.06;5094553;28;19924;-71
2021/04/06 02:26:08;;;;;;;;;;;;;;;4.36;55.37;98540.09;5094493;28;20387;-71
2021/04/06 02:28:36;;;;;;;;;;;;;;;4.34;55.85;98544.28;5094193;28;19931;-69
2021/04/06 02:31:05;;;;;;;;;;;;;;;4.36;55.59;98545.13;5094334;28;19932;-71
2021/04/06 02:33:34;;;;;;;;;;;;;;;4.31;54.45;98546.78;5094696;28;19924;-71
2021/04/06 02:36:04;;;;;;;;;;;;;;;4.29;54.61;98549.31;5093607;28;19931;-71
2021/04/06 02:38:32;;;;;;;;;;;;;;;4.32;54.02;98553.53;5094292;28;20316;-71
2021/04/06 02:41:17;;;;;;;;;;;;;;;4.27;54.07;98540.03;5093064;28;19928;-71
2021/04/06 02:43:49;;;;;;;;;;;;;;;4.21;54.46;98548.41;5094261;28;19994;-71
2021/04/06 02:46:19;;;;;;;;;;;;;;;4.14;54.60;98554.28;5094315;28;20377;-71
2021/04/06 02:48:50;;;;;;;;;;;;;;;4.10;54.69;98567.72;5094248;28;19973;-71
2021/04/06 02:51:18;;;;;;;;;;;;;;;4.08;55.00;98575.25;5094177;28;19924;-71
2021/04/06 02:53:48;;;;;;;;;;;;;;;4.06;55.17;98587.03;5094050;28;20430;-71
2021/04/06 02:56:30;;;;;;;;;;;;;;;4.00;55.99;98591.19;5094031;28;19935;-71
2021/04/06 02:59:09;;;;;;;;;;;;;;;3.95;55.72;98595.34;5094213;28;19973;-71
2021/04/06 03:01:38;;;;;;;;;;;;;;;3.91;56.28;98601.22;5094222;28;19931;-71
2021/04/06 03:04:15;;;;;;;;;;;;;;;3.84;56.77;98605.34;5093948;28;19958;-71
2021/04/06 03:06:43;;;;;;;;;;;;;;;3.81;56.38;98610.41;5094070;28;20297;-71
2021/04/06 03:09:12;;;;;;;;;;;;;;;3.78;56.45;98605.31;5093963;28;20340;-71
2021/04/06 03:11:44;;;;;;;;;;;;;;;3.75;55.96;98599.38;5094031;28;19924;-71
2021/04/06 03:14:12;;;;;;;;;;;;;;;3.72;55.03;98595.16;5093959;28;19954;-71
2021/04/06 03:16:44;;;;;;;;;;;;;;;3.70;55.55;98599.34;5094168;28;20396;-70
2021/04/06 03:19:11;;;;;;;;;;;;;;;3.65;55.21;98595.94;5094286;28;19924;-71
2021/04/06 03:21:39;;;;;;;;;;;;;;;3.65;54.89;98600.97;5093868;28;19924;-70
2021/04/06 03:24:08;;;;;;;;;;;;;;;3.64;54.24;98606.88;5093774;28;19924;-71
2021/04/06 03:26:36;;;;;;;;;;;;;;;3.68;55.11;98595.97;5093811;28;19924;-71
2021/04/06 03:29:05;;;;;;;;;;;;;;;3.75;55.15;98585.09;5093475;28;19924;-72
2021/04/06 03:31:33;;;;;;;;;;;;;;;3.76;54.76;98581.75;5093735;28;19971;-70
2021/04/06 03:34:02;;;;;;;;;;;;;;;3.75;54.42;98579.19;5094006;28;20028;-70
2021/04/06 03:36:31;;;;;;;;;;;;;;;3.70;54.28;98576.63;5093679;28;19977;-71
2021/04/06 03:39:03;;;;;;;;;;;;;;;3.68;53.44;98583.34;5093752;28;20019;-71
2021/04/06 03:41:31;;;;;;;;;;;;;;;3.68;52.88;98593.44;5093689;28;19931;-71
2021/04/06 03:44:05;;;;;;;;;;;;;;;3.67;53.43;98601.84;5093928;28;19924;-71
2021/04/06 03:46:34;;;;;;;;;;;;;;;3.66;53.14;98620.34;5095118;28;19924;-71
2021/04/06 03:49:12;;;;;;;;;;;;;;;3.67;52.76;98627.06;5097732;28;19985;-70
2021/04/06 03:51:48;;;;;;;;;;;;;;;3.65;52.93;98602.66;5097420;28;19924;-70
2021/04/06 03:54:26;;;;;;;;;;;;;;;3.65;52.28;98616.13;5097340;28;20309;-71
2021/04/06 03:56:54;;;;;;;;;;;;;;;3.64;52.79;98623.69;5097276;28;19924;-70
2021/04/06 03:59:26;;;;;;;;;;;;;;;3.58;51.88;98647.16;5097286;28;19924;-70
2021/04/06 04:01:54;;;;;;;;;;;;;;;3.55;52.69;98657.22;5097307;28;19931;-70
2021/04/06 04:04:22;;;;;;;;;;;;;;;3.55;52.46;98651.34;5095925;28;19974;-71
2021/04/06 04:06:50;;;;;;;;;;;;;;;3.54;52.32;98655.53;5097163;28;19969;-71
2021/04/06 04:09:18;;;;;;;;;;;;;;;3.50;51.91;98656.34;5097016;28;20316;-70
2021/04/06 04:11:47;;;;;;;;;;;;;;;3.47;51.73;98666.38;5097030;28;20464;-71
2021/04/06 04:14:14;;;;;;;;;;;;;;;3.44;52.02;98668.88;5096995;28;19974;-70
2021/04/06 04:16:42;;;;;;;;;;;;;;;3.39;51.68;98660.41;5096825;28;20436;-72
2021/04/06 04:19:10;;;;;;;;;;;;;;;3.36;51.82;98672.97;5096814;28;19924;-71
2021/04/06 04:21:37;;;;;;;;;;;;;;;3.31;52.16;98667.88;5096775;28;20014;-70
2021/04/06 04:24:07;;;;;;;;;;;;;;;3.33;52.47;98666.25;5096744;28;19924;-70
2021/04/06 04:26:34;;;;;;;;;;;;;;;3.37;52.45;98673.00;5096779;28;19924;-71
2021/04/06 04:29:02;;;;;;;;;;;;;;;3.40;52.38;98677.25;5096418;28;19924;-71
2021/04/06 04:31:30;;;;;;;;;;;;;;;3.39;51.99;98680.56;5096638;28;19924;-71
2021/04/06 04:33:58;;;;;;;;;;;;;;;3.40;52.10;98672.19;5096466;28;19969;-71
2021/04/06 04:36:25;;;;;;;;;;;;;;;3.43;52.61;98684.84;5096488;28;20393;-71
2021/04/06 04:38:53;;;;;;;;;;;;;;;3.44;51.99;98684.00;5096326;28;20024;-71
2021/04/06 04:41:22;;;;;;;;;;;;;;;3.43;51.77;98692.41;5096689;28;19924;-72
2021/04/06 04:43:49;;;;;;;;;;;;;;;3.41;51.86;98689.00;5096368;28;19970;-71
2021/04/06 04:46:17;;;;;;;;;;;;;;;3.40;51.51;98687.31;5096230;28;19932;-71
2021/04/06 04:48:45;;;;;;;;;;;;;;;3.37;52.33;98687.28;5096265;28;20016;-72
2021/04/06 04:51:12;;;;;;;;;;;;;;;3.33;51.70;98681.38;5096190;28;19930;-71
2021/04/06 04:53:40;;;;;;;;;;;;;;;3.35;51.43;98683.91;5096213;28;19924;-71
2021/04/06 04:56:08;;;;;;;;;;;;;;;3.29;51.34;98693.91;5096438;28;19931;-71
2021/04/06 04:58:36;;;;;;;;;;;;;;;3.26;51.93;98706.50;5095250;28;19957;-71
2021/04/06 05:01:04;;;;;;;;;;;;;;;3.25;51.66;98699.75;5096098;28;19968;-71
2021/04/06 05:03:32;;;;;;;;;;;;;;;3.24;51.82;98695.50;5096002;28;20009;-71
2021/04/06 05:06:01;;;;;;;;;;;;;;;3.22;51.67;98694.66;5095932;28;19981;-71
2021/04/06 05:08:29;;;;;;;;;;;;;;;3.24;51.15;98695.50;5095913;28;20283;-72
2021/04/06 05:10:57;;;;;;;;;;;;;;;3.27;51.56;98690.50;5095810;28;19967;-72
2021/04/06 05:13:26;;;;;;;;;;;;;;;3.27;51.49;98685.47;5095814;28;19959;-71
2021/04/06 05:15:55;;;;;;;;;;;;;;;3.27;52.12;98695.56;5095676;28;20289;-71
2021/04/06 05:18:23;;;;;;;;;;;;;;;3.25;52.09;98702.25;5094425;28;19931;-71
2021/04/06 05:20:50;;;;;;;;;;;;;;;3.25;51.76;98702.25;5094481;28;19924;-72
2021/04/06 05:23:18;;;;;;;;;;;;;;;3.28;51.84;98707.34;5095640;28;19924;-71
2021/04/06 05:25:47;;;;;;;;;;;;;;;3.29;51.87;98709.03;5095437;28;20407;-71
2021/04/06 05:28:14;;;;;;;;;;;;;;;3.33;51.68;98705.72;5095312;28;19924;-71
2021/04/06 05:30:42;;;;;;;;;;;;;;;3.36;51.86;98711.66;5095742;28;19949;-70
2021/04/06 05:33:10;;;;;;;;;;;;;;;3.44;52.03;98708.34;5095414;28;19924;-71
2021/04/06 05:35:38;;;;;;;;;;;;;;;3.53;52.07;98714.34;5095304;28;20362;-71
2021/04/06 05:38:06;;;;;;;;;;;;;;;3.61;52.07;98712.78;5095801;28;20274;-71
2021/04/06 05:40:34;;;;;;;;;;;;;;;3.70;51.90;98728.00;5095271;28;19924;-72
2021/04/06 05:43:02;;;;;;;;;;;;;;;3.70;52.01;98722.97;5095243;28;19928;-71
2021/04/06 05:45:32;;;;;;;;;;;;;;;3.68;50.93;98719.59;5093997;28;19924;-71
2021/04/06 05:48:02;;;;;;;;;;;;;;;3.67;51.26;98722.91;5095340;28;19924;-72
2021/04/06 05:50:31;;;;;;;;;;;;;;;3.60;51.38;98733.78;5095787;28;19963;-72
2021/04/06 05:53:00;;;;;;;;;;;;;;;3.56;50.74;98739.63;5095297;28;19924;-71
2021/04/06 05:55:28;;;;;;;;;;;;;;;3.52;51.21;98742.94;5095042;28;19924;-73
2021/04/06 05:57:56;;;;;;;;;;;;;;;3.49;50.39;98742.91;5094807;28;19935;-70
2021/04/06 06:00:24;;;;;;;;;;;;;;;3.53;50.83;98739.56;5094994;28;19924;-71
2021/04/06 06:02:51;;;;;;;;;;;;;;;3.61;50.50;98732.09;5094853;28;19924;-71
2021/04/06 06:05:19;;;;;;;;;;;;;;;3.73;50.95;98738.13;5094858;28;20336;-71
2021/04/06 06:07:48;;;;;;;;;;;;;;;3.85;50.82;98738.28;5095082;28;19931;-71
2021/04/06 06:10:26;;;;;;;;;;;;;;;3.92;50.55;98734.13;5094673;28;19978;-70
2021/04/06 06:12:55;;;;;;;;;;;;;;;3.89;50.33;98734.09;5094788;28;19924;-70
2021/04/06 06:15:22;;;;;;;;;;;;;;;3.89;49.90;98750.09;5094544;28;20015;-69
2021/04/06 06:18:05;;;;;;;;;;;;;;;3.87;49.68;98749.22;5094880;28;20007;-70
2021/04/06 06:20:33;;;;;;;;;;;;;;;3.87;49.13;98746.69;5092701;28;19932;-69
2021/04/06 06:23:11;;;;;;;;;;;;;;;3.97;50.10;98748.50;5094516;28;20332;-69
2021/04/06 06:25:40;;;;;;;;;;;;;;;4.03;49.01;98753.59;5093300;28;19931;-70
2021/04/06 06:28:10;;;;;;;;;;;;;;;4.06;49.78;98753.63;5093941;28;20396;-69
2021/04/06 06:30:38;;;;;;;;;;;;;;;4.04;49.30;98745.19;5094396;28;19924;-70
2021/04/06 06:33:14;;;;;;;;;;;;;;;4.14;49.21;98742.75;5094554;28;19924;-70
2021/04/06 06:35:43;;;;;;;;;;;;;;;4.27;49.63;98742.06;5095013;28;19924;-71
2021/04/06 06:38:15;;;;;;;;;;;;;;;4.47;49.30;98726.22;5094257;28;19924;-70
2021/04/06 06:40:44;;;;;;;;;;;;;;;4.64;49.52;98731.41;5094357;28;19924;-70
2021/04/06 06:43:12;;;;;;;;;;;;;;;4.85;49.12;98736.59;5093047;28;20378;-70
2021/04/06 06:45:40;;;;;;;;;;;;;;;5.08;48.35;98737.59;5094147;28;19978;-70
2021/04/06 06:48:08;;;;;;;;;;;;;;;5.21;47.69;98739.34;5094190;28;19924;-71
2021/04/06 06:50:47;;;;;;;;;;;;;;;5.26;47.17;98746.94;5094393;28;19934;-72
2021/04/06 06:53:29;;;;;;;;;;;;;;;5.33;47.02;98744.47;5094129;28;19970;-70
2021/04/06 06:55:58;;;;;;;;;;;;;;;5.30;46.53;98741.91;5093739;28;19970;-70
2021/04/06 06:58:32;;;;;;;;;;;;;;;5.23;46.05;98737.66;5093883;28;19924;-69
2021/04/06 07:01:00;;;;;;;;;;;;;;;5.32;46.75;98752.06;5094311;28;20429;-69
2021/04/06 07:03:28;;;;;;;;;;;;;;;5.39;46.12;98757.16;5093792;28;19924;-70
2021/04/06 07:05:56;;;;;;;;;;;;;;;5.46;45.40;98757.19;5093883;28;19963;-69
2021/04/06 07:08:30;;;;;;;;;;;;;;;5.38;45.14;98755.47;5093829;28;19987;-70
2021/04/06 07:11:00;;;;;;;;;;;;;;;5.36;44.88;98749.56;5094026;28;19930;-70
2021/04/06 07:13:31;;;;;;;;;;;;;;;5.36;44.85;98753.75;5093760;28;19938;-70
2021/04/06 07:15:59;;;;;;;;;;;;;;;5.29;44.79;98757.94;5093777;28;20293;-70
2021/04/06 07:18:27;;;;;;;;;;;;;;;5.28;45.10;98761.31;5093762;28;19978;-70
2021/04/06 07:21:02;;;;;;;;;;;;;;;5.30;45.43;98767.22;5093276;28;19931;-70
2021/04/06 07:23:35;;;;;;;;;;;;;;;5.28;44.90;98771.41;5097873;28;19924;-70
2021/04/06 07:26:07;;;;;;;;;;;;;;;5.24;45.11;98767.19;5097802;28;19924;-70
2021/04/06 07:28:35;;;;;;;;;;;;;;;5.22;44.81;98771.41;5097737;28;20018;-70
2021/04/06 07:31:03;;;;;;;;;;;;;;;5.14;44.47;98767.13;5097992;28;20342;-70
2021/04/06 07:33:32;;;;;;;;;;;;;;;5.16;44.67;98755.34;5097818;28;20431;-70
2021/04/06 07:36:00;;;;;;;;;;;;;;;5.17;44.44;98757.88;5097651;28;19960;-70
2021/04/06 07:38:28;;;;;;;;;;;;;;;5.14;44.69;98752.78;5096280;28;20019;-70
2021/04/06 07:40:57;;;;;;;;;;;;;;;5.20;43.86;98755.38;5097579;28;19931;-70
2021/04/06 07:43:27;;;;;;;;;;;;;;;5.29;44.17;98752.88;5097486;28;19973;-70
2021/04/06 07:45:54;;;;;;;;;;;;;;;5.32;43.70;98747.84;5097393;28;20279;-70
2021/04/06 07:48:33;;;;;;;;;;;;;;;5.48;44.11;98745.38;5096271;28;19924;-70
2021/04/06 07:51:14;;;;;;;;;;;;;;;5.70;44.03;98734.50;5097364;28;20018;-70
2021/04/06 07:53:53;;;;;;;;;;;;;;;5.91;43.89;98734.59;5097379;28;19961;-70
2021/04/06 07:56:36;;;;;;;;;;;;;;;6.24;43.42;98714.38;5097218;28;20018;-70
2021/04/06 07:59:04;;;;;;;;;;;;;;;6.36;42.87;98721.97;5097145;28;19974;-70
2021/04/06 08:01:32;;;;;;;;;;;;;;;6.49;42.83;98721.16;5097472;28;19947;-70
2021/04/06 08:04:08;;;;;;;;;;;;;;;6.61;42.15;98718.63;5097405;28;19924;-70
2021/04/06 08:06:44;;;;;;;;;;;;;;;6.68;41.27;98706.78;5097149;28;19951;-69
2021/04/06 08:09:23;;;;;;;;;;;;;;;6.65;40.85;98702.56;5097023;28;19931;-70
2021/04/06 08:12:01;;;;;;;;;;;;;;;6.70;41.09;98716.06;5096938;28;19970;-70
2021/04/06 08:14:31;;;;;;;;;;;;;;;6.55;40.15;98736.34;5097006;28;19999;-70
2021/04/06 08:17:14;;;;;;;;;;;;;;;6.64;40.48;98730.44;5097115;28;19924;-70
2021/04/06 08:19:48;;;;;;;;;;;;;;;6.91;40.58;98734.66;5096613;28;20385;-70
2021/04/06 08:22:20;;;;;;;;;;;;;;;7.27;41.05;98725.25;5096846;28;19928;-70
2021/04/06 08:24:48;;;;;;;;;;;;;;;7.22;40.05;98731.19;5096666;28;19930;-71
2021/04/06 08:27:31;;;;;;;;;;;;;;;7.34;40.52;98741.31;5096329;28;20289;-69
2021/04/06 08:30:10;;;;;;;;;;;;;;;7.33;39.82;98744.69;5095478;28;19924;-70
2021/04/06 08:32:39;;;;;;;;;;;;;;;7.45;39.46;98729.41;5095431;28;19924;-70
2021/04/06 08:35:07;;;;;;;;;;;;;;;7.51;38.87;98729.38;5096560;28;19928;-70
2021/04/06 08:37:36;;;;;;;;;;;;;;;7.49;38.25;98715.84;5096314;28;19939;-69
2021/04/06 08:40:04;;;;;;;;;;;;;;;7.41;38.09;98717.59;5096423;28;19924;-70
2021/04/06 08:42:33;;;;;;;;;;;;;;;7.50;38.45;98725.19;5096541;28;20019;-70
2021/04/06 08:45:01;;;;;;;;;;;;;;;7.86;39.07;98735.16;5096298;28;19928;-70
2021/04/06 08:47:40;;;;;;;;;;;;;;;8.13;39.08;98746.03;5096247;28;19969;-70
2021/04/06 08:50:12;;;;;;;;;;;;;;;8.07;38.70;98752.81;5096257;28;19978;-70
2021/04/06 08:52:39;;;;;;;;;;;;;;;7.51;37.72;98759.03;5096216;28;19928;-70
2021/04/06 08:55:12;;;;;;;;;;;;;;;7.38;38.75;98779.38;5094863;28;20026;-70
2021/04/06 08:57:40;;;;;;;;;;;;;;;7.40;38.71;98776.81;5096044;28;19973;-70
2021/04/06 09:00:14;;;;;;;;;;;;;;;7.17;38.55;98779.44;5096041;28;19928;-70
2021/04/06 09:02:42;;;;;;;;;;;;;;;7.09;38.54;98790.41;5096012;28;20015;-70
2021/04/06 09:05:12;;;;;;;;;;;;;;;7.27;38.91;98767.56;5095980;28;19930;-70
2021/04/06 09:07:40;;;;;;;;;;;;;;;7.57;38.67;98772.53;5096232;28;19969;-70
2021/04/06 09:10:10;;;;;;;;;;;;;;;7.74;38.92;98783.47;5095888;28;19924;-70
2021/04/06 09:12:39;;;;;;;;;;;;;;;7.92;38.82;98780.84;5095974;28;20441;-70
2021/04/06 09:15:08;;;;;;;;;;;;;;;7.91;38.76;98776.63;5095770;28;20370;-70
2021/04/06 09:17:36;;;;;;;;;;;;;;;7.93;38.76;98780.00;5095526;28;20362;-70
2021/04/06 09:20:07;;;;;;;;;;;;;;;7.83;37.90;98775.81;5095541;28;20292;-70
2021/04/06 09:22:37;;;;;;;;;;;;;;;7.89;37.33;98773.22;5095633;28;19924;-70
2021/04/06 09:25:22;;;;;;;;;;;;;;;7.94;37.34;98768.97;5094314;28;20353;-70
2021/04/06 09:27:55;;;;;;;;;;;;;;;8.04;37.22;98764.69;5095250;28;19967;-70
2021/04/06 09:30:32;;;;;;;;;;;;;;;8.06;36.81;98765.56;5094254;28;20286;-70
2021/04/06 09:33:06;;;;;;;;;;;;;;;8.09;36.79;98766.38;5094254;28;19931;-70
2021/04/06 09:35:34;;;;;;;;;;;;;;;8.09;36.56;98751.13;5095716;28;19960;-70
2021/04/06 09:38:04;;;;;;;;;;;;;;;8.07;35.77;98732.50;5095414;28;19959;-70
2021/04/06 09:40:32;;;;;;;;;;;;;;;7.99;35.88;98729.16;5095313;28;19966;-70
2021/04/06 09:43:01;;;;;;;;;;;;;;;8.25;36.20;98735.78;5095002;28;19931;-70
2021/04/06 09:45:29;;;;;;;;;;;;;;;8.23;35.78;98738.31;5094801;28;19924;-71
2021/04/06 09:47:57;;;;;;;;;;;;;;;8.50;36.67;98727.13;5095097;28;19927;-71
2021/04/06 09:50:26;;;;;;;;;;;;;;;8.58;37.20;98735.56;5094174;28;19989;-71
2021/04/06 09:52:54;;;;;;;;;;;;;;;8.44;36.29;98737.38;5095366;28;19924;-71
2021/04/06 09:55:24;;;;;;;;;;;;;;;8.56;35.89;98743.22;5094982;28;19969;-71
2021/04/06 09:57:53;;;;;;;;;;;;;;;8.67;36.42;98751.59;5093567;28;19924;-71
2021/04/06 10:00:26;;;;;;;;;;;;;;;8.70;36.39;98755.81;5095024;28;19977;-69
2021/04/06 10:03:04;;;;;;;;;;;;;;;8.65;36.12;98747.38;5094841;28;19928;-70
2021/04/06 10:05:33;;;;;;;;;;;;;;;8.55;35.70;98761.00;5094890;28;19928;-70
2021/04/06 10:08:00;;;;;;;;;;;;;;;8.46;35.98;98750.91;5094678;28;19939;-70
2021/04/06 10:10:31;;;;;;;;;;;;;;;8.57;36.58;98744.03;5094731;28;19924;-70
2021/04/06 10:13:00;;;;;;;;;;;;;;;8.62;36.53;98747.38;5094534;28;19924;-71
2021/04/06 10:15:29;;;;;;;;;;;;;;;8.61;37.34;98750.81;5094616;28;20293;-70
2021/04/06 10:18:06;;;;;;;;;;;;;;;8.65;36.48;98743.13;5094535;28;19928;-70
2021/04/06 10:20:38;;;;;;;;;;;;;;;8.66;35.28;98737.16;5094541;28;20343;-70
2021/04/06 10:23:07;;;;;;;;;;;;;;;8.57;35.33;98728.78;5094592;28;19924;-71
2021/04/06 10:25:36;;;;;;;;;;;;;;;8.67;35.48;98726.16;5094409;28;19974;-70
2021/04/06 10:28:05;;;;;;;;;;;;;;;8.93;35.29;98717.41;5094156;28;19924;-70
2021/04/06 10:30:37;;;;;;;;;;;;;;;9.08;33.95;98713.03;5094420;28;19924;-70
2021/04/06 10:33:06;;;;;;;;;;;;;;;9.12;33.46;98699.41;5094370;28;19924;-70
2021/04/06 10:35:36;;;;;;;;;;;;;;;9.12;32.64;98704.50;5094371;28;19977;-70
2021/04/06 10:38:05;;;;;;;;;;;;;;;9.13;32.54;98703.66;5094177;28;19928;-70
2021/04/06 10:40:35;;;;;;;;;;;;;;;9.20;33.00;98712.91;5094243;28;20023;-70
2021/04/06 10:43:05;;;;;;;;;;;;;;;9.07;32.77;98708.78;5094176;28;19932;-70
2021/04/06 10:45:36;;;;;;;;;;;;;;;9.08;32.65;98702.84;5094166;28;19973;-70
2021/04/06 10:48:06;;;;;;;;;;;;;;;9.00;32.65;98714.81;5094479;28;19931;-70
2021/04/06 10:50:34;;;;;;;;;;;;;;;9.18;33.72;98703.59;5094423;28;19924;-70
2021/04/06 10:53:13;;;;;;;;;;;;;;;9.52;32.39;98704.06;5094159;28;20056;-70
2021/04/06 10:55:41;;;;;;;;;;;;;;;9.40;32.91;98705.91;5093395;28;20015;-70
2021/04/06 10:58:10;;;;;;;;;;;;;;;9.24;31.93;98700.97;5093844;28;20378;-70
2021/04/06 11:00:38;;;;;;;;;;;;;;;9.47;32.18;98700.72;5094280;28;19928;-70
2021/04/06 11:03:13;;;;;;;;;;;;;;;9.82;32.70;98694.31;5093963;28;20271;-70
2021/04/06 11:05:41;;;;;;;;;;;;;;;10.26;32.19;98675.84;5094114;28;19959;-70
2021/04/06 11:08:20;;;;;;;;;;;;;;;10.64;32.63;98682.88;5093936;28;19924;-70
2021/04/06 11:10:48;;;;;;;;;;;;;;;10.97;32.08;98681.41;5093966;28;19977;-70
2021/04/06 11:13:17;;;;;;;;;;;;;;;10.69;31.53;98661.53;5093962;28;19924;-71
2021/04/06 11:15:45;;;;;;;;;;;;;;;10.44;31.19;98665.34;5094153;28;20298;-71
2021/04/06 11:18:13;;;;;;;;;;;;;;;10.24;30.76;98672.50;5093808;28;19971;-71
2021/04/06 11:20:41;;;;;;;;;;;;;;;10.31;31.70;98673.22;5093763;28;20351;-70
2021/04/06 11:23:09;;;;;;;;;;;;;;;10.16;31.98;98670.91;5094143;28;19924;-71
2021/04/06 11:25:37;;;;;;;;;;;;;;;10.10;31.10;98664.19;5093741;28;20108;-70
2021/04/06 11:28:07;;;;;;;;;;;;;;;9.98;31.02;98659.25;5093504;28;19936;-70
2021/04/06 11:30:36;;;;;;;;;;;;;;;9.90;31.42;98663.63;5093729;28;20289;-70
2021/04/06 11:33:05;;;;;;;;;;;;;;;9.69;31.56;98671.56;5094024;28;19928;-70
2021/04/06 11:35:33;;;;;;;;;;;;;;;9.27;30.74;98663.59;5092561;28;20405;-70
2021/04/06 11:38:02;;;;;;;;;;;;;;;8.90;30.38;98662.31;5093586;28;19924;-70
2021/04/06 11:40:30;;;;;;;;;;;;;;;8.89;31.09;98660.66;5093657;28;19924;-71
2021/04/06 11:42:58;;;;;;;;;;;;;;;8.65;30.51;98655.81;5093709;28;19935;-70
2021/04/06 11:45:26;;;;;;;;;;;;;;;8.34;31.25;98641.69;5093915;28;20026;-70
2021/04/06 11:47:55;;;;;;;;;;;;;;;8.36;32.03;98637.44;5093595;28;19931;-71
2021/04/06 11:50:23;;;;;;;;;;;;;;;8.48;32.30;98640.72;5093758;28;19932;-70
2021/04/06 11:52:51;;;;;;;;;;;;;;;8.67;32.62;98649.00;5093597;28;19931;-70
2021/04/06 11:55:20;;;;;;;;;;;;;;;8.83;32.95;98640.34;5093579;28;20373;-70
2021/04/06 11:57:47;;;;;;;;;;;;;;;8.84;32.33;98639.50;5093488;28;20274;-70
2021/04/06 12:00:16;;;;;;;;;;;;;;;8.77;31.59;98636.19;5093377;28;20008;-70
2021/04/06 12:02:43;;;;;;;;;;;;;;;8.77;32.20;98637.88;5093408;28;20302;-70
2021/04/06 12:05:13;;;;;;;;;;;;;;;8.73;32.68;98634.50;5093343;28;19924;-70
2021/04/06 12:07:41;;;;;;;;;;;;;;;8.69;31.98;98632.03;5094618;28;19924;-70
2021/04/06 12:10:10;;;;;;;;;;;;;;;8.60;32.01;98630.44;5097025;28;19924;-70
2021/04/06 12:12:38;;;;;;;;;;;;;;;8.60;32.43;98627.03;5097234;28;20022;-70
2021/04/06 12:15:06;;;;;;;;;;;;;;;8.61;33.19;98628.72;5096887;28;19931;-70
2021/04/06 12:17:34;;;;;;;;;;;;;;;8.70;32.97;98626.09;5096940;28;19985;-70
2021/04/06 12:20:02;;;;;;;;;;;;;;;8.97;32.48;98623.25;5096748;28;19924;-71
2021/04/06 12:22:31;;;;;;;;;;;;;;;9.40;32.52;98616.78;5096757;28;20003;-70
2021/04/06 12:24:59;;;;;;;;;;;;;;;9.63;32.40;98615.59;5096634;28;20483;-70
2021/04/06 12:27:27;;;;;;;;;;;;;;;9.64;33.16;98609.66;5096589;28;20321;-70
2021/04/06 12:29:54;;;;;;;;;;;;;;;9.42;31.62;98617.59;5096426;28;20278;-71
2021/04/06 12:32:25;;;;;;;;;;;;;;;9.42;31.95;98615.03;5096572;28;19924;-71
2021/04/06 12:34:53;;;;;;;;;;;;;;;9.40;32.63;98609.13;5095343;28;19924;-70
2021/04/06 12:37:21;;;;;;;;;;;;;;;9.44;32.37;98620.09;5095231;28;19973;-70
2021/04/06 12:40:07;;;;;;;;;;;;;;;9.32;32.60;98626.22;5096419;28;19924;-71
2021/04/06 12:42:36;;;;;;;;;;;;;;;9.04;31.99;98612.16;5096425;28;19962;-70
2021/04/06 12:45:04;;;;;;;;;;;;;;;8.80;32.33;98614.97;5096268;28;19924;-70
2021/04/06 12:47:32;;;;;;;;;;;;;;;8.78;32.18;98616.69;5096617;28;19924;-71
2021/04/06 12:50:00;;;;;;;;;;;;;;;9.14;33.35;98618.78;5096082;28;19924;-70
2021/04/06 12:52:28;;;;;;;;;;;;;;;9.56;34.16;98608.91;5096249;28;19935;-71
2021/04/06 12:55:13;;;;;;;;;;;;;;;9.95;33.56;98593.88;5096182;28;20011;-71
2021/04/06 12:57:41;;;;;;;;;;;;;;;10.21;33.72;98590.94;5096381;28;19977;-71
2021/04/06 13:00:10;;;;;;;;;;;;;;;10.53;34.35;98596.31;5096034;28;19924;-71
2021/04/06 13:02:38;;;;;;;;;;;;;;;10.51;33.78;98582.75;5094771;28;20035;-71
2021/04/06 13:05:07;;;;;;;;;;;;;;;10.53;33.15;98598.03;5096016;28;19924;-71
2021/04/06 13:07:35;;;;;;;;;;;;;;;10.61;33.08;98586.81;5095750;28;19977;-71
2021/04/06 13:10:04;;;;;;;;;;;;;;;10.61;32.39;98591.06;5095881;28;19924;-70